Taquari, Brazil
Current Conditions -  °F | °C
As of 10:00 PM on Friday 24 Oct 2014 (Local Time) from SBPA Reporting Station
Few Clouds Few Clouds  
Wind Chill: 72°   Ceiling: Unl
Heat Index: 72°   Visibility: 6mi
Dew Point: 66°   Wind: 9mph
Humidity: 83%   Direction: 120°ESE
Pressure: 29.94"   Gusts: NA
Location:  29.8°S, 51.86°W
Report Text: SBPA 250000Z 12008KT 9000 FEW012 22/19 Q1014
Loading
Personal Weather Stations






























Interactive Weather Map
Tropical Storm Tracking
New forecast layout! Learn more

10-Day Weather Forecast

Advertisements
Track Severe Weather on mobile